Aérodrome :
LOGIN :

S'inscrire | Disclaimer

   EN    FR    IT 

 










Légende :    VFR   VFR Marginal   IFR   IFR Intensif   IFR Très Intensif
Visi : 
Plafond : 
>= 8 km
>= 3000ft
5 à 8 km
1000 à 3000 ft
1500m à 5 km
500 à 1000 ft
800 à 1500m
200 à 500 ft
< 800m
< 200 ft
Symboles :   Orages  Brouillard  Fortes neiges  Fortes précipitations  Vent > 20 kt
SIGMETs :   Divers  Orages  Givrage  Turbulence  Onde Orograph.  Cendres Volcan.






- Altitude de l'aérodrome : 160 ft
- Code IATA : FMO


EDDG - Münster Osnabrück Int.

DERNIER METAR :
  • 250520Z AUTO VRB02KT CAVOK 20/15 Q1017 NOSIG

METARs EXPIRÉS :
  • 250450Z AUTO VRB02KT CAVOK 17/15 Q1017 NOSIG
  • 250420Z AUTO VRB01KT CAVOK 15/14 Q1017 NOSIG
  • 250350Z AUTO 04001KT CAVOK 14/13 Q1017 NOSIG
  • 250320Z AUTO 03001KT CAVOK 14/14 Q1017 NOSIG
  • 250250Z AUTO 05002KT CAVOK 15/14 Q1017 NOSIG
  • 250220Z AUTO 04002KT CAVOK 16/14 Q1017 NOSIG
  • 250150Z AUTO 05003KT 010V090 CAVOK 16/14 Q1017 NOSIG
  • 250120Z AUTO 03002KT CAVOK 16/15 Q1017 NOSIG
  • 250050Z AUTO 03002KT CAVOK 16/14 Q1018 NOSIG
  • 250020Z AUTO VRB01KT CAVOK 16/14 Q1018 NOSIG

TAF TAF EDDG
Valide du 25 à 06h jusqu'au 26 à 06h UTC


250500Z 2506/2606 VRB03KT CAVOK
TEMPO 2508/2519 07006KT



MET'MAP, la Météo Aéronautique d'un coup d'oeil ! - Copyright ORBIFLY Décembre 2007 - Disclaimer

ORBIFLY MET'MAP TEAM :

Programmation & Développement : Alexandra Zaïnal
Sur une idée originale de : Baudouin d'Aumeries
Soutien technique & logistique : Manuel Goepfert
Assistance : Marc-Olivier Méhu




SOURCES & CREDITS :

   NOAA